createdAt,value
2023-04-22T00:00:14.081Z,38.92
2023-04-22T00:02:42.643Z,38.75
2023-04-22T00:05:15.656Z,38.72
2023-04-22T00:07:45.263Z,38.91
2023-04-22T00:10:13.317Z,38.75
2023-04-22T00:12:41.562Z,38.40
2023-04-22T00:15:10.989Z,38.23
2023-04-22T00:17:40.286Z,38.28
2023-04-22T00:20:10.913Z,38.81
2023-04-22T00:22:38.909Z,38.72
2023-04-22T00:25:10.135Z,38.77
2023-04-22T00:27:38.331Z,39.08
2023-04-22T00:30:07.300Z,38.68
2023-04-22T00:32:35.575Z,38.74
2023-04-22T00:35:03.970Z,39.23
2023-04-22T00:37:32.190Z,39.33
2023-04-22T00:40:00.290Z,39.23
2023-04-22T00:42:28.379Z,39.22
2023-04-22T00:44:56.387Z,39.34
2023-04-22T00:47:27.083Z,39.69
2023-04-22T00:49:55.393Z,39.89
2023-04-22T00:52:23.476Z,39.64
2023-04-22T00:54:52.376Z,39.36
2023-04-22T00:57:21.012Z,39.36
2023-04-22T00:59:49.093Z,39.25
2023-04-22T01:02:19.874Z,39.30
2023-04-22T01:04:48.448Z,39.31
2023-04-22T01:07:16.762Z,39.21
2023-04-22T01:09:44.902Z,39.46
2023-04-22T01:12:12.925Z,39.49
2023-04-22T01:14:41.709Z,39.11
2023-04-22T01:17:10.948Z,39.12
2023-04-22T01:19:39.365Z,39.18
2023-04-22T01:22:08.555Z,39.09
2023-04-22T01:24:39.914Z,39.24
2023-04-22T01:27:08.462Z,39.25
2023-04-22T01:29:38.171Z,39.34
2023-04-22T01:32:06.705Z,39.50
2023-04-22T01:34:35.341Z,39.74
2023-04-22T01:37:03.281Z,39.39
2023-04-22T01:39:31.378Z,39.20
2023-04-22T01:41:59.748Z,38.94
2023-04-22T01:44:27.876Z,39.25
2023-04-22T01:46:55.992Z,39.14
2023-04-22T01:49:24.177Z,39.39
2023-04-22T01:51:52.247Z,39.82
2023-04-22T01:54:21.747Z,39.54
2023-04-22T01:56:53.084Z,39.53
2023-04-22T01:59:21.727Z,39.76
2023-04-22T02:01:50.606Z,39.68
2023-04-22T02:04:19.221Z,39.42
2023-04-22T02:06:47.348Z,39.37
2023-04-22T02:09:15.717Z,39.43
2023-04-22T02:11:44.089Z,39.36
2023-04-22T02:14:13.488Z,39.35
2023-04-22T02:16:42.485Z,38.86
2023-04-22T02:19:11.074Z,39.20
2023-04-22T02:21:39.863Z,39.05
2023-04-22T02:24:08.097Z,39.00
2023-04-22T02:26:36.083Z,38.97
2023-04-22T02:29:04.047Z,38.81
2023-04-22T02:31:32.062Z,38.83
2023-04-22T02:34:00.313Z,38.99
2023-04-22T02:36:28.887Z,38.90
2023-04-22T02:38:57.102Z,38.81
2023-04-22T02:41:25.143Z,38.86
2023-04-22T02:43:53.308Z,39.10
2023-04-22T02:46:21.458Z,39.27
2023-04-22T02:48:49.921Z,39.18
2023-04-22T02:51:18.572Z,39.69
2023-04-22T02:53:46.623Z,39.57
2023-04-22T02:56:14.773Z,39.80
2023-04-22T02:58:45.016Z,39.83
2023-04-22T03:01:12.994Z,39.83
2023-04-22T03:03:41.565Z,39.82
2023-04-22T03:06:11.363Z,39.79
2023-04-22T03:08:39.857Z,40.42
2023-04-22T03:11:07.873Z,40.68
2023-04-22T03:15:10.911Z,50.69
2023-04-22T03:17:38.996Z,46.83
2023-04-22T03:20:11.710Z,45.94
2023-04-22T03:22:39.861Z,45.80
2023-04-22T03:25:10.886Z,45.02
2023-04-22T03:27:39.189Z,44.30
2023-04-22T03:30:08.189Z,44.42
2023-04-22T03:32:36.501Z,44.40
2023-04-22T03:35:16.599Z,43.72
2023-04-22T03:37:45.458Z,43.25
2023-04-22T03:40:13.996Z,42.99
2023-04-22T03:42:42.868Z,42.24
2023-04-22T03:45:11.223Z,41.88
2023-04-22T03:47:42.541Z,41.29
2023-04-22T03:50:18.429Z,40.58
2023-04-22T03:52:46.717Z,39.78
2023-04-22T03:55:17.516Z,39.23
2023-04-22T03:57:46.042Z,38.76
2023-04-22T04:00:14.427Z,38.61
2023-04-22T04:02:42.820Z,38.25
2023-04-22T04:05:12.840Z,37.67
2023-04-22T04:07:43.918Z,36.67
2023-04-22T04:10:12.031Z,36.02
2023-04-22T04:12:40.122Z,35.35
2023-04-22T04:15:09.136Z,34.77
2023-04-22T04:17:37.284Z,34.02
2023-04-22T04:20:07.210Z,33.50
2023-04-22T04:22:36.164Z,33.37
2023-04-22T04:25:06.994Z,32.77
2023-04-22T04:27:39.557Z,32.07
2023-04-22T04:30:09.782Z,32.11
2023-04-22T04:32:45.655Z,31.88
2023-04-22T04:35:16.353Z,31.08
2023-04-22T04:37:47.996Z,30.40
2023-04-22T04:40:16.394Z,29.17
2023-04-22T04:42:53.211Z,28.48
2023-04-22T04:45:24.352Z,27.92
2023-04-22T04:47:55.264Z,27.71
2023-04-22T04:50:28.158Z,26.30
2023-04-22T04:52:58.204Z,25.91
2023-04-22T04:55:31.814Z,25.43
2023-04-22T04:58:00.604Z,24.82
2023-04-22T05:00:29.229Z,24.08
2023-04-22T05:02:57.551Z,23.88
2023-04-22T05:05:25.668Z,23.49
2023-04-22T05:07:53.948Z,23.14
2023-04-22T05:10:22.148Z,22.52
2023-04-22T05:12:51.239Z,21.80
2023-04-22T05:15:22.636Z,21.86
2023-04-22T05:17:50.728Z,21.12
2023-04-22T05:20:18.811Z,20.50
2023-04-22T05:22:47.035Z,20.74
2023-04-22T05:25:16.333Z,20.79
2023-04-22T05:27:51.491Z,19.96
2023-04-22T05:30:19.803Z,19.58
2023-04-22T05:32:47.810Z,19.00
2023-04-22T05:35:16.216Z,18.89
2023-04-22T05:37:44.225Z,19.52
2023-04-22T05:40:12.351Z,19.38
2023-04-22T05:42:40.800Z,19.20
2023-04-22T05:45:09.257Z,19.26
2023-04-22T05:47:39.131Z,19.25
2023-04-22T05:50:08.019Z,18.69
2023-04-22T05:52:41.938Z,18.06
2023-04-22T05:55:15.278Z,18.20
2023-04-22T05:57:44.403Z,18.07
2023-04-22T06:00:23.299Z,17.83
2023-04-22T06:02:58.202Z,17.70
2023-04-22T06:05:26.517Z,17.61
2023-04-22T06:07:54.751Z,17.58
2023-04-22T06:10:22.817Z,17.46
2023-04-22T06:12:51.026Z,17.38
2023-04-22T06:15:19.060Z,16.90
2023-04-22T06:17:48.697Z,17.39
2023-04-22T06:20:16.735Z,17.34
2023-04-22T06:22:45.190Z,17.45
2023-04-22T06:25:13.407Z,17.05
2023-04-22T06:27:41.377Z,16.81
2023-04-22T06:30:11.697Z,16.81
2023-04-22T06:32:40.991Z,16.59
2023-04-22T06:35:09.160Z,16.39
2023-04-22T06:37:37.210Z,16.68
2023-04-22T06:40:08.019Z,16.48
2023-04-22T06:42:56.730Z,16.53
2023-04-22T06:45:42.358Z,16.15
2023-04-22T06:48:35.700Z,16.06
2023-04-22T06:51:14.536Z,15.97
2023-04-22T06:53:42.545Z,15.95
2023-04-22T06:56:12.645Z,16.36
2023-04-22T06:58:40.570Z,16.86
2023-04-22T07:01:08.619Z,17.06
2023-04-22T07:03:37.490Z,16.84
2023-04-22T07:06:09.652Z,17.03
2023-04-22T07:08:37.828Z,16.86
2023-04-22T07:11:05.915Z,16.89
2023-04-22T07:14:03.362Z,17.35
2023-04-22T07:16:31.384Z,17.08
2023-04-22T07:18:59.716Z,17.06
2023-04-22T07:21:27.771Z,17.56
2023-04-22T07:23:55.686Z,17.31
2023-04-22T07:26:23.913Z,17.59
2023-04-22T07:28:51.988Z,17.56
2023-04-22T07:31:21.129Z,17.36
2023-04-22T07:33:49.683Z,17.36
2023-04-22T07:36:17.684Z,16.90
2023-04-22T07:38:45.741Z,16.89
2023-04-22T07:41:14.908Z,16.68
2023-04-22T07:43:45.141Z,16.55
2023-04-22T07:46:13.235Z,17.02
2023-04-22T07:48:41.624Z,16.62
2023-04-22T07:51:09.616Z,16.68
2023-04-22T07:53:37.581Z,16.56
2023-04-22T07:56:05.671Z,16.33
2023-04-22T07:58:33.759Z,16.51
2023-04-22T08:01:02.000Z,16.26
2023-04-22T08:03:30.333Z,16.14
2023-04-22T08:05:58.535Z,16.12
2023-04-22T08:08:26.629Z,16.08
2023-04-22T08:10:54.501Z,16.11
2023-04-22T08:13:22.503Z,16.27
2023-04-22T08:15:50.586Z,15.87
2023-04-22T08:18:18.544Z,15.93
2023-04-22T08:20:47.864Z,15.72
2023-04-22T08:23:15.841Z,15.77
2023-04-22T08:25:43.794Z,15.62
2023-04-22T08:28:11.732Z,15.15
2023-04-22T08:30:39.816Z,14.87
2023-04-22T08:33:07.741Z,14.77
2023-04-22T08:35:36.131Z,14.46
2023-04-22T08:38:04.046Z,14.40
2023-04-22T08:40:32.258Z,13.92
2023-04-22T08:43:00.307Z,14.24
2023-04-22T08:45:28.186Z,13.84
2023-04-22T08:47:56.237Z,13.66
2023-04-22T08:50:25.374Z,13.60
2023-04-22T08:52:53.670Z,13.10
2023-04-22T08:55:21.546Z,13.10
2023-04-22T08:57:50.384Z,12.80
2023-04-22T09:00:19.602Z,12.73
2023-04-22T09:02:48.432Z,12.91
2023-04-22T09:05:16.673Z,13.16
2023-04-22T09:07:46.151Z,12.47
2023-04-22T09:10:14.066Z,12.62
2023-04-22T09:12:42.128Z,12.65
2023-04-22T09:15:11.141Z,12.51
2023-04-22T09:17:39.413Z,12.22
2023-04-22T09:20:08.962Z,12.35
2023-04-22T09:22:45.392Z,12.62
2023-04-22T09:25:20.891Z,11.92
2023-04-22T09:27:58.728Z,11.61
2023-04-22T09:30:31.009Z,11.70
2023-04-22T09:33:01.295Z,11.65
2023-04-22T09:35:31.764Z,12.12
2023-04-22T09:38:01.236Z,11.97
2023-04-22T09:40:30.256Z,12.15
2023-04-22T09:43:00.717Z,12.35
2023-04-22T09:45:29.974Z,12.23
2023-04-22T09:48:01.162Z,11.72
2023-04-22T09:50:29.437Z,12.54
2023-04-22T09:53:00.278Z,11.99
2023-04-22T09:55:28.773Z,11.51
2023-04-22T09:57:57.582Z,11.30
2023-04-22T10:00:28.549Z,10.77
2023-04-22T10:02:57.221Z,10.78
2023-04-22T10:05:25.560Z,10.97
2023-04-22T10:07:53.688Z,11.27
2023-04-22T10:10:21.803Z,11.67
2023-04-22T10:12:49.954Z,12.18
2023-04-22T10:15:18.012Z,12.24
2023-04-22T10:17:46.335Z,12.13
2023-04-22T10:20:16.906Z,11.70
2023-04-22T10:22:45.437Z,11.45
2023-04-22T10:25:24.646Z,12.22
2023-04-22T10:28:06.328Z,12.47
2023-04-22T10:30:36.710Z,12.21
2023-04-22T10:33:31.488Z,12.14
2023-04-22T10:36:15.340Z,12.49
2023-04-22T10:38:55.771Z,12.84
2023-04-22T10:41:32.077Z,12.83
2023-04-22T10:44:09.213Z,12.37
2023-04-22T10:46:40.348Z,12.83
2023-04-22T10:49:18.358Z,13.04
2023-04-22T10:51:47.934Z,12.81
2023-04-22T10:54:37.156Z,13.18
2023-04-22T10:57:11.940Z,12.93
2023-04-22T10:59:50.397Z,13.06
2023-04-22T11:02:19.256Z,13.11
2023-04-22T11:04:47.894Z,13.07
2023-04-22T11:07:28.012Z,12.73
2023-04-22T11:10:01.667Z,12.47
2023-04-22T11:12:35.954Z,12.79
2023-04-22T11:15:13.918Z,12.07
2023-04-22T11:17:43.822Z,12.22
2023-04-22T11:20:13.065Z,12.05
2023-04-22T11:22:42.817Z,11.72
2023-04-22T11:25:10.922Z,12.17
2023-04-22T11:27:39.699Z,12.39
2023-04-22T11:30:09.238Z,12.67
2023-04-22T11:32:39.130Z,12.93
2023-04-22T11:35:11.843Z,13.02
2023-04-22T11:37:50.770Z,12.95
2023-04-22T11:40:32.081Z,13.61
2023-04-22T11:43:02.502Z,13.40
2023-04-22T11:45:32.487Z,13.18
2023-04-22T11:48:01.060Z,13.32
2023-04-22T11:50:40.351Z,13.14
2023-04-22T11:53:21.184Z,12.95
2023-04-22T11:55:53.600Z,12.62
2023-04-22T11:58:27.196Z,13.09
2023-04-22T12:00:56.397Z,12.89
2023-04-22T12:03:25.966Z,12.98
2023-04-22T12:06:00.417Z,13.29
2023-04-22T12:08:33.528Z,13.39
2023-04-22T12:11:04.019Z,13.35
2023-04-22T12:13:38.968Z,13.54
2023-04-22T12:16:14.464Z,13.81
2023-04-22T12:18:49.841Z,13.21
2023-04-22T12:21:20.288Z,12.54
2023-04-22T12:23:57.309Z,12.52
2023-04-22T12:26:28.801Z,12.70
2023-04-22T12:28:58.221Z,13.18
2023-04-22T12:31:26.915Z,13.00
2023-04-22T12:33:55.039Z,13.03
2023-04-22T12:36:23.681Z,12.85
2023-04-22T12:38:51.755Z,12.89
2023-04-22T12:41:19.706Z,13.13
2023-04-22T12:43:47.982Z,13.00
2023-04-22T12:46:16.531Z,12.98
2023-04-22T12:48:44.967Z,12.89
2023-04-22T12:51:13.005Z,13.00
2023-04-22T12:53:40.927Z,13.38
2023-04-22T12:56:08.948Z,13.33
2023-04-22T12:58:37.083Z,13.30
2023-04-22T13:01:05.253Z,12.83
2023-04-22T13:03:36.823Z,12.70
2023-04-22T13:06:04.932Z,12.36
2023-04-22T13:08:33.026Z,12.35
2023-04-22T13:11:01.023Z,12.11
2023-04-22T13:13:29.797Z,12.61
2023-04-22T13:15:57.811Z,12.18
2023-04-22T13:18:25.925Z,12.23
2023-04-22T13:20:56.885Z,12.57
2023-04-22T13:23:26.001Z,12.56
2023-04-22T13:25:54.296Z,12.97
2023-04-22T13:28:22.241Z,12.66
2023-04-22T13:30:50.269Z,12.77
2023-04-22T13:33:18.850Z,13.04
2023-04-22T13:35:46.926Z,12.76
2023-04-22T13:38:15.612Z,12.90
2023-04-22T13:40:43.675Z,13.10
2023-04-22T13:43:11.737Z,13.29
2023-04-22T13:45:40.879Z,12.95
2023-04-22T13:48:09.030Z,13.25
2023-04-22T13:50:37.230Z,13.31
2023-04-22T13:53:09.962Z,13.30
2023-04-22T13:55:38.607Z,13.08
2023-04-22T13:58:07.787Z,13.22
2023-04-22T14:00:36.021Z,13.15
2023-04-22T14:03:04.246Z,13.13
2023-04-22T14:05:32.498Z,13.57
2023-04-22T14:08:03.737Z,13.65
2023-04-22T14:10:31.619Z,13.93
2023-04-22T14:12:59.773Z,13.94
2023-04-22T14:15:27.817Z,13.54
2023-04-22T14:17:55.882Z,13.69
2023-04-22T14:20:25.340Z,13.37
2023-04-22T14:22:53.283Z,13.63
2023-04-22T14:25:21.270Z,13.68
2023-04-22T14:27:50.901Z,13.10
2023-04-22T14:30:20.282Z,13.11
2023-04-22T14:32:49.142Z,12.89
2023-04-22T14:35:18.051Z,13.25
2023-04-22T14:37:48.978Z,13.84
2023-04-22T14:40:17.507Z,13.98
2023-04-22T14:42:45.870Z,14.03
2023-04-22T14:45:14.799Z,14.21
2023-04-22T14:47:44.457Z,14.22
2023-04-22T14:50:12.486Z,14.53
2023-04-22T14:52:41.061Z,14.42
2023-04-22T14:55:21.884Z,14.31
2023-04-22T14:57:53.947Z,14.47
2023-04-22T15:00:22.001Z,14.25
2023-04-22T15:02:50.433Z,14.50
2023-04-22T15:05:18.559Z,14.68
2023-04-22T15:07:46.773Z,14.57
2023-04-22T15:10:15.225Z,14.55
2023-04-22T15:12:44.349Z,14.73
2023-04-22T15:15:16.881Z,15.08
2023-04-22T15:17:45.093Z,15.19
2023-04-22T15:20:13.318Z,14.99
2023-04-22T15:23:19.918Z,15.18
2023-04-22T15:25:47.649Z,15.44
2023-04-22T15:28:15.682Z,15.59
2023-04-22T15:32:19.010Z,17.10
2023-04-22T15:34:47.167Z,16.27
2023-04-22T15:37:16.235Z,16.05
2023-04-22T15:39:44.144Z,15.64
2023-04-22T15:42:12.085Z,15.74
2023-04-22T15:44:40.682Z,15.60
2023-04-22T15:47:09.688Z,15.56
2023-04-22T15:49:40.761Z,15.52
2023-04-22T15:52:09.357Z,15.57
2023-04-22T15:54:38.038Z,15.86
2023-04-22T15:57:06.056Z,16.12
2023-04-22T15:59:33.947Z,15.93
2023-04-22T16:02:02.040Z,16.37
2023-04-22T16:04:30.348Z,16.15
2023-04-22T16:06:59.428Z,15.94
2023-04-22T16:09:27.830Z,16.00
2023-04-22T16:11:56.913Z,16.16
2023-04-22T16:14:24.941Z,16.36
2023-04-22T16:16:53.176Z,16.30
2023-04-22T16:19:21.820Z,16.49
2023-04-22T16:21:50.455Z,16.88
2023-04-22T16:24:18.364Z,16.74
2023-04-22T16:26:46.312Z,16.84
2023-04-22T16:29:14.246Z,16.70
2023-04-22T16:31:42.183Z,16.78
2023-04-22T16:34:10.172Z,16.77
2023-04-22T16:36:38.455Z,17.11
2023-04-22T16:39:06.924Z,17.32
2023-04-22T16:41:36.296Z,17.17
2023-04-22T16:44:04.275Z,17.18
2023-04-22T16:46:32.375Z,17.50
2023-04-22T16:49:00.349Z,17.39
2023-04-22T16:51:28.528Z,17.49
2023-04-22T16:53:56.606Z,17.75
2023-04-22T16:56:24.604Z,18.15
2023-04-22T16:58:52.635Z,18.48
2023-04-22T17:01:20.699Z,19.17
2023-04-22T17:06:16.774Z,19.30
2023-04-22T17:08:44.666Z,19.47
2023-04-22T17:11:12.645Z,19.72
2023-04-22T17:13:40.894Z,19.70
2023-04-22T17:16:11.080Z,19.93
2023-04-22T17:18:39.299Z,20.72
2023-04-22T17:21:07.382Z,21.08
2023-04-22T17:23:35.993Z,20.96
2023-04-22T17:26:03.922Z,20.76
2023-04-22T17:28:32.665Z,20.45
2023-04-22T17:31:00.804Z,20.91
2023-04-22T17:33:30.220Z,20.99
2023-04-22T17:36:12.006Z,21.37
2023-04-22T17:38:41.499Z,21.66
2023-04-22T17:41:09.469Z,22.00
2023-04-22T17:43:38.607Z,22.15
2023-04-22T17:46:06.573Z,22.47
2023-04-22T17:48:36.659Z,22.32
2023-04-22T17:51:06.565Z,22.37
2023-04-22T17:53:34.617Z,22.66
2023-04-22T17:56:02.629Z,22.53
2023-04-22T17:58:30.631Z,22.49
2023-04-22T18:00:59.625Z,22.74
2023-04-22T18:03:27.947Z,23.00
2023-04-22T18:05:56.155Z,22.76
2023-04-22T18:08:24.692Z,22.51
2023-04-22T18:10:54.072Z,22.92
2023-04-22T18:13:25.363Z,22.98
2023-04-22T18:15:53.451Z,23.77
2023-04-22T18:18:21.712Z,23.98
2023-04-22T18:20:51.241Z,23.78
2023-04-22T18:23:19.696Z,23.27
2023-04-22T18:25:48.097Z,23.20
2023-04-22T18:28:16.257Z,22.75
2023-04-22T18:30:44.344Z,23.07
2023-04-22T18:33:12.299Z,23.40
2023-04-22T18:35:42.123Z,23.34
2023-04-22T18:38:10.106Z,23.37
2023-04-22T18:40:38.088Z,23.62
2023-04-22T18:43:12.775Z,23.43
2023-04-22T18:45:41.366Z,23.66
2023-04-22T18:48:09.313Z,23.77
2023-04-22T18:50:37.539Z,23.36
2023-04-22T18:53:05.571Z,23.27
2023-04-22T18:55:33.626Z,23.90
2023-04-22T18:58:01.563Z,23.60
2023-04-22T19:00:29.687Z,24.11
2023-04-22T19:02:57.657Z,24.12
2023-04-22T19:05:25.686Z,23.86
2023-04-22T19:07:54.056Z,24.25
2023-04-22T19:10:22.194Z,24.72
2023-04-22T19:12:51.375Z,24.25
2023-04-22T19:15:22.178Z,24.12
2023-04-22T19:17:50.439Z,24.03
2023-04-22T19:20:18.616Z,23.81
2023-04-22T19:22:46.614Z,23.88
2023-04-22T19:25:14.513Z,23.92
2023-04-22T19:27:42.990Z,24.06
2023-04-22T19:30:11.880Z,23.99
2023-04-22T19:32:40.859Z,23.88
2023-04-22T19:35:12.596Z,23.79
2023-04-22T19:37:41.552Z,23.91
2023-04-22T19:40:09.880Z,23.76
2023-04-22T19:42:39.427Z,23.95
2023-04-22T19:45:09.429Z,23.54
2023-04-22T19:47:38.612Z,23.91
2023-04-22T19:50:08.159Z,24.07
2023-04-22T19:52:36.402Z,24.04
2023-04-22T19:55:08.986Z,24.04
2023-04-22T19:57:37.349Z,24.05
2023-04-22T20:00:07.763Z,23.99
2023-04-22T20:02:44.784Z,23.75
2023-04-22T20:05:13.491Z,24.14
2023-04-22T20:07:42.040Z,24.07
2023-04-22T20:10:10.318Z,24.42
2023-04-22T20:12:39.913Z,24.41
2023-04-22T20:15:09.592Z,24.46
2023-04-22T20:17:39.279Z,24.34
2023-04-22T20:20:12.950Z,24.52
2023-04-22T20:22:42.356Z,24.58
2023-04-22T20:25:14.962Z,24.65
2023-04-22T20:27:44.366Z,24.63
2023-04-22T20:30:13.927Z,24.59
2023-04-22T20:32:42.653Z,24.22
2023-04-22T20:35:14.966Z,23.95
2023-04-22T20:37:46.261Z,24.14
2023-04-22T20:40:15.749Z,24.53
2023-04-22T20:42:46.916Z,24.93
2023-04-22T20:45:15.968Z,25.05
2023-04-22T20:47:45.811Z,24.78
2023-04-22T20:50:14.014Z,24.55
2023-04-22T20:52:43.482Z,23.84
2023-04-22T20:55:11.429Z,23.75
2023-04-22T20:57:39.512Z,24.01
2023-04-22T21:00:08.286Z,24.24
2023-04-22T21:02:37.117Z,24.29
2023-04-22T21:05:06.869Z,24.16
2023-04-22T21:07:36.044Z,24.42
2023-04-22T21:10:04.582Z,24.56
2023-04-22T21:12:33.227Z,24.70
2023-04-22T21:15:01.590Z,24.90
2023-04-22T21:17:30.975Z,25.11
2023-04-22T21:19:58.928Z,25.08
2023-04-22T21:22:27.471Z,25.16
2023-04-22T21:24:55.771Z,25.09
2023-04-22T21:27:24.430Z,25.34
2023-04-22T21:29:52.608Z,25.18
2023-04-22T21:32:21.082Z,25.16
2023-04-22T21:34:49.898Z,24.78
2023-04-22T21:37:17.842Z,24.68
2023-04-22T21:39:47.285Z,24.75
2023-04-22T21:42:15.216Z,24.68
2023-04-22T21:44:49.518Z,24.93
2023-04-22T21:47:17.722Z,25.19
2023-04-22T21:49:47.099Z,25.49
2023-04-22T21:52:15.404Z,25.66
2023-04-22T21:54:43.910Z,25.75
2023-04-22T21:57:12.057Z,25.81
2023-04-22T21:59:40.338Z,25.56
2023-04-22T22:02:08.273Z,25.41
2023-04-22T22:04:36.460Z,25.71
2023-04-22T22:07:04.686Z,25.68
2023-04-22T22:09:33.013Z,25.47
2023-04-22T22:12:01.916Z,25.32
2023-04-22T22:14:30.131Z,25.54
2023-04-22T22:16:58.203Z,25.52
2023-04-22T22:19:27.802Z,25.58
2023-04-22T22:21:56.307Z,25.71
2023-04-22T22:24:24.314Z,25.85
2023-04-22T22:26:52.276Z,25.77
2023-04-22T22:29:20.239Z,25.95
2023-04-22T22:31:48.344Z,26.45
2023-04-22T22:34:16.662Z,26.75
2023-04-22T22:36:44.593Z,26.77
2023-04-22T22:39:14.626Z,27.13
2023-04-22T22:41:44.071Z,26.91
2023-04-22T22:44:12.416Z,26.99
2023-04-22T22:46:40.790Z,27.15
2023-04-22T22:49:09.368Z,27.32
2023-04-22T22:51:37.605Z,27.50
2023-04-22T22:54:05.807Z,27.27
2023-04-22T22:56:33.993Z,27.20
2023-04-22T22:59:01.923Z,28.07
2023-04-22T23:01:30.532Z,28.76
2023-04-22T23:03:59.012Z,28.63
2023-04-22T23:06:27.376Z,28.20
2023-04-22T23:08:55.489Z,28.23
2023-04-22T23:11:23.670Z,28.00
2023-04-22T23:13:52.035Z,27.77
2023-04-22T23:16:21.075Z,27.47
2023-04-22T23:18:49.181Z,28.28
2023-04-22T23:21:17.263Z,28.04
2023-04-22T23:23:45.525Z,27.96
2023-04-22T23:26:14.011Z,27.58
2023-04-22T23:28:42.382Z,28.11
2023-04-22T23:31:10.762Z,28.34
2023-04-22T23:33:40.452Z,28.32
2023-04-22T23:36:09.341Z,28.66
2023-04-22T23:38:37.900Z,28.47
2023-04-22T23:41:06.505Z,28.60
2023-04-22T23:43:35.227Z,27.91
2023-04-22T23:46:03.348Z,27.71
2023-04-22T23:48:33.825Z,28.03
2023-04-22T23:51:01.789Z,28.25
2023-04-22T23:53:29.919Z,31.19
2023-04-22T23:55:58.597Z,33.73
2023-04-22T23:58:26.818Z,34.07
